Time;durP1;ratioP1;P1;durP2;ratioP2;P2;SDS_P1;SDS_P2;PMS_P1;PMS_P2;Temp;Humidity;BMP_temperature;BMP_pressure;BME280_temperature;BME280_humidity;BME280_pressure;Samples;Min_cycle;Max_cycle;Signal;HPM_P1;HPM_P2
2022/03/16 00:00:18;;;;;;;22.53;13.87;;;7.30;99.90;;;;;;4996339;28;20237;-46
2022/03/16 00:02:46;;;;;;;30.97;16.10;;;7.30;99.90;;;;;;5000121;28;20240;-45
2022/03/16 00:05:14;;;;;;;27.33;16.40;;;7.30;99.90;;;;;;5013788;28;20633;-46
2022/03/16 00:07:43;;;;;;;25.53;15.50;;;7.30;99.90;;;;;;4996904;28;20304;-45
2022/03/16 00:10:11;;;;;;;22.57;14.30;;;7.30;99.90;;;;;;5004295;28;20623;-46
2022/03/16 00:12:41;;;;;;;23.97;14.90;;;7.30;99.90;;;;;;5010613;28;20446;-47
2022/03/16 00:15:08;;;;;;;18.87;13.47;;;7.30;99.90;;;;;;4993272;28;20582;-45
2022/03/16 00:17:35;;;;;;;24.00;13.97;;;7.30;99.90;;;;;;4998805;28;20211;-47
2022/03/16 00:20:02;;;;;;;22.13;13.63;;;7.30;99.90;;;;;;4994836;28;20854;-46
2022/03/16 00:22:29;;;;;;;20.87;14.60;;;7.30;99.90;;;;;;4999129;28;20234;-45
2022/03/16 00:24:57;;;;;;;23.20;14.57;;;7.30;99.90;;;;;;5009452;28;20282;-47
2022/03/16 00:27:24;;;;;;;25.17;14.37;;;7.30;99.90;;;;;;5013487;28;20490;-46
2022/03/16 00:29:51;;;;;;;22.77;14.93;;;7.30;99.90;;;;;;4982745;28;20301;-47
2022/03/16 00:32:18;;;;;;;20.33;13.43;;;7.20;99.90;;;;;;5010121;28;20234;-45
2022/03/16 00:34:45;;;;;;;22.87;14.53;;;7.20;99.90;;;;;;4992572;28;20210;-47
2022/03/16 00:37:12;;;;;;;24.00;13.33;;;7.30;99.90;;;;;;5007598;28;20209;-46
2022/03/16 00:39:39;;;;;;;21.93;12.70;;;7.20;99.90;;;;;;5016169;28;20273;-47
2022/03/16 00:42:08;;;;;;;22.37;14.47;;;7.10;99.90;;;;;;4981761;28;20584;-46
2022/03/16 00:44:35;;;;;;;23.40;13.73;;;7.10;99.90;;;;;;5013397;28;20402;-47
2022/03/16 00:47:03;;;;;;;25.53;14.33;;;7.10;99.90;;;;;;4994496;28;20432;-46
2022/03/16 00:49:29;;;;;;;25.33;14.50;;;7.00;99.90;;;;;;5007951;28;20318;-45
2022/03/16 00:51:56;;;;;;;23.13;12.77;;;7.00;99.90;;;;;;4986139;28;20395;-45
2022/03/16 00:54:23;;;;;;;19.97;12.17;;;6.90;99.90;;;;;;4998249;28;20266;-46
2022/03/16 00:56:50;;;;;;;22.87;12.73;;;6.80;99.90;;;;;;5008384;28;20208;-47
2022/03/16 00:59:18;;;;;;;20.57;12.57;;;6.80;99.90;;;;;;5012427;28;20282;-45
2022/03/16 01:01:45;;;;;;;22.73;12.77;;;6.80;99.90;;;;;;4991493;28;20543;-47
2022/03/16 01:04:12;;;;;;;21.20;13.10;;;6.70;99.90;;;;;;5016580;28;20543;-45
2022/03/16 01:06:39;;;;;;;22.07;12.80;;;6.80;99.90;;;;;;5002783;28;20240;-46
2022/03/16 01:09:06;;;;;;;17.73;11.77;;;6.70;99.90;;;;;;5011531;28;20610;-46
2022/03/16 01:11:33;;;;;;;16.80;11.17;;;6.70;99.90;;;;;;5018429;28;20277;-45
2022/03/16 01:14:00;;;;;;;18.10;12.07;;;6.70;99.90;;;;;;5003602;28;20308;-46
2022/03/16 01:16:29;;;;;;;20.17;12.20;;;6.70;99.90;;;;;;5012477;28;20201;-45
2022/03/16 01:18:55;;;;;;;20.33;11.53;;;6.70;99.90;;;;;;4990041;28;20247;-46
2022/03/16 01:21:23;;;;;;;19.20;12.13;;;6.60;99.90;;;;;;5001285;28;20303;-49
2022/03/16 01:23:49;;;;;;;15.80;10.90;;;6.60;99.90;;;;;;5003394;28;20224;-48
2022/03/16 01:26:16;;;;;;;15.37;10.83;;;6.50;99.90;;;;;;5014334;28;20201;-45
2022/03/16 01:28:43;;;;;;;19.07;12.70;;;6.40;99.90;;;;;;4996564;28;20215;-47
2022/03/16 01:31:10;;;;;;;20.67;12.63;;;6.40;99.90;;;;;;5009284;28;20238;-45
2022/03/16 01:33:38;;;;;;;22.70;12.70;;;6.40;99.90;;;;;;4996201;28;20301;-47
2022/03/16 01:36:05;;;;;;;19.73;12.53;;;6.40;99.90;;;;;;4998544;28;20671;-45
2022/03/16 01:38:32;;;;;;;21.70;12.27;;;6.40;99.90;;;;;;5013984;28;20216;-45
2022/03/16 01:40:59;;;;;;;21.00;12.30;;;6.40;99.90;;;;;;5012251;28;20251;-45
2022/03/16 01:43:26;;;;;;;20.13;11.60;;;6.40;99.90;;;;;;5009179;28;20239;-48
2022/03/16 01:45:53;;;;;;;21.37;12.33;;;6.50;99.90;;;;;;4989273;28;20380;-45
2022/03/16 01:48:21;;;;;;;17.67;12.13;;;6.50;99.90;;;;;;4982584;28;20218;-44
2022/03/16 01:50:50;;;;;;;16.87;10.87;;;6.40;99.90;;;;;;5016808;28;20251;-49
2022/03/16 01:53:17;;;;;;;19.20;10.37;;;6.40;99.90;;;;;;4997882;28;20244;-46
2022/03/16 01:55:44;;;;;;;20.00;12.10;;;6.30;99.90;;;;;;5008720;28;20289;-49
2022/03/16 01:58:12;;;;;;;25.23;13.03;;;6.40;99.90;;;;;;5000590;28;20230;-44
2022/03/16 02:00:40;;;;;;;26.50;14.20;;;6.40;99.90;;;;;;5014617;28;20246;-48
2022/03/16 02:03:08;;;;;;;23.70;12.47;;;6.40;99.90;;;;;;5001578;28;20366;-43
2022/03/16 02:05:35;;;;;;;20.93;12.70;;;6.30;99.90;;;;;;4994786;28;20222;-50
2022/03/16 02:08:05;;;;;;;22.90;13.50;;;6.40;99.90;;;;;;5000306;28;20373;-44
2022/03/16 02:10:32;;;;;;;18.73;12.63;;;6.30;99.90;;;;;;5008162;28;20219;-46
2022/03/16 02:12:59;;;;;;;20.87;13.40;;;6.30;99.90;;;;;;4992442;28;20507;-45
2022/03/16 02:15:26;;;;;;;20.67;12.27;;;6.20;99.90;;;;;;5012725;28;20208;-48
2022/03/16 02:17:55;;;;;;;23.37;12.03;;;6.20;99.90;;;;;;5002093;28;20492;-49
2022/03/16 02:20:22;;;;;;;19.27;11.87;;;6.20;99.90;;;;;;5000305;28;20971;-45
2022/03/16 02:22:55;;;;;;;19.80;11.60;;;6.20;99.90;;;;;;5010332;28;20232;-48
2022/03/16 02:25:22;;;;;;;19.23;11.63;;;6.30;99.90;;;;;;5014924;28;20467;-45
2022/03/16 02:27:48;;;;;;;18.60;11.50;;;6.20;99.90;;;;;;5007815;28;20348;-49
2022/03/16 02:30:15;;;;;;;18.03;10.53;;;6.10;99.90;;;;;;5015002;28;20214;-44
2022/03/16 02:32:42;;;;;;;14.70;9.77;;;6.00;99.90;;;;;;5018749;28;20334;-48
2022/03/16 02:35:09;;;;;;;14.77;10.57;;;5.90;99.90;;;;;;4983072;28;24690;-44
2022/03/16 02:37:38;;;;;;;13.37;9.03;;;5.80;99.90;;;;;;5017794;28;20208;-49
2022/03/16 02:40:08;;;;;;;16.40;10.27;;;5.70;99.90;;;;;;5012577;28;20432;-45
2022/03/16 02:42:36;;;;;;;14.27;9.93;;;5.70;99.90;;;;;;5009312;28;20270;-49
2022/03/16 02:45:03;;;;;;;15.77;10.73;;;5.60;99.90;;;;;;4989910;28;20282;-45
2022/03/16 02:47:30;;;;;;;15.57;9.60;;;5.50;99.90;;;;;;5013666;28;20376;-45
2022/03/16 02:49:58;;;;;;;16.30;10.13;;;5.50;99.90;;;;;;5010061;28;20198;-46
2022/03/16 02:52:25;;;;;;;14.50;9.80;;;5.40;99.90;;;;;;4997767;28;20559;-46
2022/03/16 02:54:52;;;;;;;20.90;11.43;;;5.60;99.90;;;;;;5014409;28;20214;-45
2022/03/16 02:57:21;;;;;;;17.80;9.73;;;5.60;99.90;;;;;;5005014;28;20244;-44
2022/03/16 02:59:48;;;;;;;14.17;7.90;;;5.60;99.90;;;;;;5002070;28;20255;-45
2022/03/16 03:02:15;;;;;;;12.37;7.60;;;5.60;99.90;;;;;;5001823;28;20698;-46
2022/03/16 03:04:41;;;;;;;15.50;10.03;;;5.60;99.90;;;;;;4999254;28;20293;-44
2022/03/16 03:07:09;;;;;;;16.60;10.73;;;5.60;99.90;;;;;;4999026;28;20605;-45
2022/03/16 03:09:36;;;;;;;18.00;11.33;;;5.70;99.90;;;;;;5003071;28;20308;-44
2022/03/16 03:12:03;;;;;;;17.60;11.23;;;5.80;99.90;;;;;;5009094;28;20205;-45
2022/03/16 03:14:32;;;;;;;21.20;11.70;;;5.90;99.90;;;;;;5000235;28;20211;-44
2022/03/16 03:16:59;;;;;;;17.07;10.77;;;6.00;99.90;;;;;;5017410;28;20209;-45
2022/03/16 03:19:26;;;;;;;23.77;12.67;;;6.00;99.90;;;;;;5013066;28;20280;-45
2022/03/16 03:21:53;;;;;;;19.27;11.17;;;6.00;99.90;;;;;;4992121;28;20245;-45
2022/03/16 03:24:20;;;;;;;16.87;9.90;;;5.90;99.90;;;;;;5006124;28;20206;-46
2022/03/16 03:26:47;;;;;;;12.93;8.27;;;5.80;99.90;;;;;;5010891;28;20609;-45
2022/03/16 03:32:38;;;;;;;15.47;9.33;;;5.50;99.90;;;;;;4996829;28;20276;-45
2022/03/16 03:35:06;;;;;;;12.63;8.30;;;5.30;99.90;;;;;;5005266;28;20219;-44
2022/03/16 03:37:34;;;;;;;17.90;10.10;;;5.20;99.90;;;;;;4995123;28;20430;-45
2022/03/16 03:40:01;;;;;;;16.30;9.53;;;5.30;99.90;;;;;;5021919;28;20464;-45
2022/03/16 03:42:28;;;;;;;14.27;9.00;;;5.40;99.90;;;;;;5007166;28;20541;-45
2022/03/16 03:44:54;;;;;;;16.43;9.30;;;5.40;99.90;;;;;;4993010;28;20811;-45
2022/03/16 03:47:21;;;;;;;16.80;9.93;;;5.40;99.90;;;;;;5001389;28;20341;-46
2022/03/16 03:49:49;;;;;;;14.53;9.27;;;5.30;99.90;;;;;;5012191;28;20198;-45
2022/03/16 03:52:16;;;;;;;16.93;9.83;;;5.30;99.90;;;;;;4998298;28;20308;-47
2022/03/16 03:54:43;;;;;;;16.57;10.17;;;5.30;99.90;;;;;;4986014;28;20224;-44
2022/03/16 03:57:10;;;;;;;15.43;10.20;;;5.40;99.90;;;;;;5016661;28;20232;-45
2022/03/16 03:59:37;;;;;;;17.33;10.63;;;5.30;99.90;;;;;;4997741;28;20224;-44
2022/03/16 04:02:04;;;;;;;17.53;11.17;;;5.40;99.90;;;;;;4999317;28;20534;-45
2022/03/16 04:04:30;;;;;;;20.53;10.67;;;5.50;99.90;;;;;;5006859;28;20206;-45
2022/03/16 04:06:59;;;;;;;18.83;12.07;;;5.60;99.90;;;;;;5003840;28;20447;-45
2022/03/16 04:09:25;;;;;;;20.60;12.63;;;5.60;99.90;;;;;;4978948;28;20220;-44
2022/03/16 04:11:52;;;;;;;21.13;11.67;;;5.60;99.90;;;;;;5011895;28;20234;-45
2022/03/16 04:14:19;;;;;;;18.80;11.93;;;5.60;99.90;;;;;;5001339;28;21063;-45
2022/03/16 04:16:46;;;;;;;17.97;10.67;;;5.60;99.90;;;;;;5008200;28;20216;-46
2022/03/16 04:19:13;;;;;;;20.07;12.40;;;5.60;99.90;;;;;;5011523;28;20529;-45
2022/03/16 04:21:40;;;;;;;21.73;11.13;;;5.60;99.90;;;;;;5015618;28;20246;-45
2022/03/16 04:24:08;;;;;;;20.47;11.33;;;5.50;99.90;;;;;;4984275;28;20226;-45
2022/03/16 04:26:35;;;;;;;19.47;11.90;;;5.50;99.90;;;;;;5014164;28;20214;-45
2022/03/16 04:29:02;;;;;;;19.33;11.53;;;5.50;99.90;;;;;;4996298;28;20290;-46
2022/03/16 04:31:29;;;;;;;19.27;10.03;;;5.40;99.90;;;;;;4998825;28;20206;-45
2022/03/16 04:33:57;;;;;;;18.37;11.07;;;5.40;99.90;;;;;;5008583;28;20248;-47
2022/03/16 04:36:24;;;;;;;24.40;12.63;;;5.40;99.90;;;;;;5006885;28;20261;-45
2022/03/16 04:38:51;;;;;;;21.43;12.97;;;5.50;99.90;;;;;;4990216;28;20236;-46
2022/03/16 04:41:19;;;;;;;21.83;13.33;;;5.50;99.90;;;;;;5005987;28;20236;-45
2022/03/16 04:43:46;;;;;;;24.87;13.77;;;5.50;99.90;;;;;;5005577;28;20230;-46
2022/03/16 04:46:13;;;;;;;22.10;13.33;;;5.60;99.90;;;;;;5005896;28;20629;-45
2022/03/16 04:48:40;;;;;;;24.17;12.63;;;5.60;99.90;;;;;;4997380;28;20318;-45
2022/03/16 04:51:07;;;;;;;16.77;10.17;;;5.50;99.90;;;;;;5015268;28;20591;-45
2022/03/16 04:53:34;;;;;;;15.67;10.00;;;5.40;99.90;;;;;;4995153;28;20222;-45
2022/03/16 04:56:01;;;;;;;17.97;10.67;;;5.30;99.90;;;;;;4991822;28;20214;-45
2022/03/16 04:58:30;;;;;;;16.17;11.07;;;5.20;99.90;;;;;;5006745;28;20459;-46
2022/03/16 05:00:57;;;;;;;16.77;11.07;;;5.20;99.90;;;;;;4994205;28;20517;-46
2022/03/16 05:03:24;;;;;;;18.23;11.30;;;5.30;99.90;;;;;;5008670;28;20839;-46
2022/03/16 05:05:50;;;;;;;16.77;10.23;;;5.30;99.90;;;;;;4996666;28;20281;-46
2022/03/16 05:08:17;;;;;;;16.70;10.17;;;5.20;99.90;;;;;;5021660;28;20288;-47
2022/03/16 05:10:47;;;;;;;17.60;11.27;;;5.20;99.90;;;;;;4995166;28;20226;-45
2022/03/16 05:13:14;;;;;;;21.27;11.07;;;5.30;99.90;;;;;;5017687;28;20257;-46
2022/03/16 05:15:43;;;;;;;21.60;12.27;;;5.40;99.90;;;;;;4986441;28;20534;-46
2022/03/16 05:18:09;;;;;;;23.77;13.37;;;5.50;99.90;;;;;;5004856;28;20236;-46
2022/03/16 05:20:37;;;;;;;20.17;12.07;;;5.50;99.90;;;;;;4996838;28;20210;-49
2022/03/16 05:23:04;;;;;;;22.47;13.97;;;5.50;99.90;;;;;;5013621;28;20344;-47
2022/03/16 05:25:31;;;;;;;27.57;14.83;;;5.60;99.90;;;;;;4995978;28;22771;-48
2022/03/16 05:27:58;;;;;;;22.70;13.73;;;5.60;99.90;;;;;;4982559;28;20214;-48
2022/03/16 05:30:26;;;;;;;23.53;12.83;;;5.60;99.90;;;;;;5000706;28;20238;-44
2022/03/16 05:32:59;;;;;;;22.53;13.33;;;5.60;99.90;;;;;;4971400;28;20364;-48
2022/03/16 05:35:27;;;;;;;20.57;12.70;;;5.50;99.90;;;;;;5013327;28;20208;-47
2022/03/16 05:37:54;;;;;;;21.50;12.63;;;5.40;99.90;;;;;;4982823;28;20217;-49
2022/03/16 05:40:21;;;;;;;23.43;13.47;;;5.30;99.90;;;;;;5007929;28;20213;-45
2022/03/16 05:42:48;;;;;;;21.17;12.43;;;5.30;99.90;;;;;;4988853;28;20240;-45
2022/03/16 05:45:15;;;;;;;25.47;12.97;;;5.30;99.90;;;;;;5000355;28;20537;-45
2022/03/16 05:47:42;;;;;;;28.73;13.83;;;5.30;99.90;;;;;;4988649;28;20216;-45
2022/03/16 05:50:10;;;;;;;24.27;13.83;;;5.40;99.90;;;;;;5014893;28;20369;-44
2022/03/16 05:52:38;;;;;;;22.93;14.03;;;5.40;99.90;;;;;;4992561;28;20552;-44
2022/03/16 05:55:07;;;;;;;27.10;15.90;;;5.50;99.90;;;;;;4981386;28;20241;-49
2022/03/16 05:57:37;;;;;;;25.37;15.40;;;5.60;99.90;;;;;;4993447;28;20219;-49
2022/03/16 06:00:05;;;;;;;25.53;15.07;;;5.70;99.90;;;;;;4999092;28;20286;-45
2022/03/16 06:02:32;;;;;;;27.90;14.60;;;5.70;99.90;;;;;;5005498;28;21154;-49
2022/03/16 06:04:59;;;;;;;22.83;13.83;;;5.70;99.90;;;;;;5010441;28;20281;-46
2022/03/16 06:07:28;;;;;;;19.83;12.63;;;5.80;99.90;;;;;;5004666;28;23071;-49
2022/03/16 06:09:55;;;;;;;23.97;14.40;;;5.70;99.90;;;;;;5005892;28;20435;-43
2022/03/16 06:12:21;;;;;;;20.93;13.17;;;5.80;99.90;;;;;;4995235;28;20226;-45
2022/03/16 06:14:48;;;;;;;20.93;13.93;;;5.80;99.90;;;;;;4984275;28;21421;-45
2022/03/16 06:17:15;;;;;;;20.33;13.00;;;5.80;99.90;;;;;;5003459;28;20212;-45
2022/03/16 06:19:42;;;;;;;21.70;13.80;;;5.80;99.90;;;;;;4995914;28;20202;-45
2022/03/16 06:22:09;;;;;;;24.03;13.33;;;5.90;99.90;;;;;;4991522;28;20499;-45
2022/03/16 06:24:37;;;;;;;24.33;14.47;;;6.00;99.90;;;;;;5010790;28;20199;-45
2022/03/16 06:27:04;;;;;;;20.40;13.67;;;6.00;99.90;;;;;;5014180;28;20213;-45
2022/03/16 06:29:31;;;;;;;23.83;14.90;;;6.00;99.90;;;;;;4992642;28;20548;-45
2022/03/16 06:31:58;;;;;;;24.50;14.53;;;6.10;99.90;;;;;;4997592;28;20291;-46
2022/03/16 06:34:25;;;;;;;23.80;14.43;;;6.20;99.90;;;;;;4988898;28;20417;-45
2022/03/16 06:36:52;;;;;;;28.20;14.67;;;6.20;99.90;;;;;;5002109;28;20215;-45
2022/03/16 06:39:19;;;;;;;28.17;16.17;;;6.20;99.90;;;;;;5017541;28;20243;-45
2022/03/16 06:41:47;;;;;;;27.83;15.37;;;6.20;99.90;;;;;;4999754;28;20217;-45
2022/03/16 06:44:14;;;;;;;26.23;14.03;;;6.20;99.90;;;;;;4990450;28;20323;-45
2022/03/16 06:46:41;;;;;;;26.47;15.37;;;6.30;99.90;;;;;;5003242;28;20212;-44
2022/03/16 06:49:08;;;;;;;27.13;14.87;;;6.30;99.90;;;;;;4990795;28;21328;-46
2022/03/16 06:51:35;;;;;;;24.43;14.67;;;6.30;99.90;;;;;;5016699;28;20211;-45
2022/03/16 06:54:02;;;;;;;27.23;14.87;;;6.30;99.90;;;;;;5005979;28;20223;-44
2022/03/16 06:56:29;;;;;;;24.40;14.53;;;6.40;99.90;;;;;;5009222;28;20320;-45
2022/03/16 06:58:57;;;;;;;23.17;14.93;;;6.40;99.90;;;;;;4983086;28;21009;-45
2022/03/16 07:01:24;;;;;;;24.37;13.37;;;6.50;99.90;;;;;;4983513;28;20214;-45
2022/03/16 07:03:51;;;;;;;24.67;13.83;;;6.50;99.90;;;;;;4983663;28;20267;-45
2022/03/16 07:06:18;;;;;;;24.27;14.60;;;6.50;99.90;;;;;;5008434;28;20319;-45
2022/03/16 07:08:46;;;;;;;25.70;13.70;;;6.50;99.90;;;;;;5007773;28;20468;-45
2022/03/16 07:11:13;;;;;;;25.03;13.33;;;6.50;99.90;;;;;;4996830;28;20761;-45
2022/03/16 07:13:41;;;;;;;23.30;12.67;;;6.50;99.90;;;;;;5011660;28;20594;-45
2022/03/16 07:16:10;;;;;;;22.87;13.00;;;6.50;99.90;;;;;;4988439;28;20213;-43
2022/03/16 07:18:37;;;;;;;22.03;13.10;;;6.50;99.90;;;;;;5005078;28;20297;-44
2022/03/16 07:21:04;;;;;;;22.20;12.60;;;6.50;99.90;;;;;;4995074;28;20292;-46
2022/03/16 07:23:30;;;;;;;20.27;12.37;;;6.60;99.90;;;;;;5004839;28;20463;-49
2022/03/16 07:25:57;;;;;;;22.43;13.53;;;6.50;99.90;;;;;;5008564;28;20212;-49
2022/03/16 07:28:24;;;;;;;19.20;13.13;;;6.50;99.90;;;;;;4992454;28;20283;-46
2022/03/16 07:30:51;;;;;;;21.30;12.73;;;6.50;99.90;;;;;;5017984;28;20315;-46
2022/03/16 07:33:19;;;;;;;21.70;13.10;;;6.50;99.90;;;;;;4967891;28;20263;-46
2022/03/16 07:35:46;;;;;;;18.80;13.03;;;6.50;99.90;;;;;;5011097;28;20241;-49
2022/03/16 07:38:13;;;;;;;22.67;13.20;;;6.60;99.90;;;;;;5001721;28;20198;-44
2022/03/16 07:40:41;;;;;;;24.30;13.83;;;6.60;99.90;;;;;;5008733;28;20466;-44
2022/03/16 07:43:08;;;;;;;18.93;12.80;;;6.60;99.90;;;;;;5010499;28;20398;-46
2022/03/16 07:45:35;;;;;;;20.27;13.07;;;6.70;99.90;;;;;;5019220;28;20478;-45
2022/03/16 07:48:03;;;;;;;22.77;13.67;;;6.70;99.90;;;;;;4991619;28;20212;-45
2022/03/16 07:50:32;;;;;;;21.03;12.73;;;6.80;99.90;;;;;;5004716;28;20586;-46
2022/03/16 07:52:59;;;;;;;26.73;12.20;;;6.90;99.90;;;;;;5004027;28;20257;-46
2022/03/16 07:55:26;;;;;;;21.23;12.63;;;6.90;99.90;;;;;;5007748;28;20284;-43
2022/03/16 07:57:54;;;;;;;19.53;11.63;;;7.00;99.90;;;;;;5007567;28;20353;-49
2022/03/16 08:00:22;;;;;;;22.87;12.73;;;7.00;99.90;;;;;;5014688;28;20284;-44
2022/03/16 08:02:48;;;;;;;21.50;12.30;;;7.10;99.90;;;;;;5000905;28;20301;-49
2022/03/16 08:05:16;;;;;;;21.47;13.07;;;7.10;99.90;;;;;;5002717;28;20285;-48
2022/03/16 08:07:44;;;;;;;18.63;12.00;;;7.20;99.90;;;;;;5001014;28;20281;-49
2022/03/16 08:10:11;;;;;;;18.57;11.87;;;7.60;99.90;;;;;;5003207;28;20670;-47
2022/03/16 08:12:38;;;;;;;21.00;12.27;;;7.30;99.90;;;;;;5018973;28;20259;-49
2022/03/16 08:15:06;;;;;;;24.77;12.90;;;7.40;99.90;;;;;;4997723;28;20526;-44
2022/03/16 08:17:33;;;;;;;61.00;26.13;;;7.40;99.90;;;;;;5022846;28;20303;-45
2022/03/16 08:20:00;;;;;;;41.83;19.07;;;7.50;99.90;;;;;;4985592;28;20938;-47
2022/03/16 08:22:27;;;;;;;23.80;12.17;;;7.50;99.90;;;;;;5011126;28;20258;-44
2022/03/16 08:24:57;;;;;;;20.30;12.07;;;7.50;99.90;;;;;;4998659;28;20321;-44
2022/03/16 08:27:24;;;;;;;21.67;12.53;;;7.50;99.90;;;;;;5015468;28;20210;-47
2022/03/16 08:29:51;;;;;;;22.93;12.23;;;7.60;99.90;;;;;;5013825;28;20206;-48
2022/03/16 08:32:18;;;;;;;20.03;11.07;;;7.70;99.90;;;;;;4998641;28;20308;-46
2022/03/16 08:34:45;;;;;;;22.20;10.67;;;7.70;99.90;;;;;;5001042;28;20215;-49
2022/03/16 08:37:12;;;;;;;17.77;10.50;;;7.80;99.90;;;;;;4995406;28;20845;-48
2022/03/16 08:39:40;;;;;;;18.77;11.33;;;7.80;99.90;;;;;;5013310;28;20227;-49
2022/03/16 08:42:10;;;;;;;17.37;10.37;;;7.80;99.90;;;;;;5008013;28;20237;-46
2022/03/16 08:44:37;;;;;;;22.30;9.93;;;7.80;99.90;;;;;;5014304;28;20529;-50
2022/03/16 08:47:05;;;;;;;20.17;10.73;;;7.90;99.90;;;;;;5008483;28;20206;-44
2022/03/16 08:49:31;;;;;;;21.83;11.00;;;8.00;99.90;;;;;;5015138;28;20281;-43
2022/03/16 08:51:58;;;;;;;18.40;10.50;;;8.10;99.90;;;;;;4987676;28;20351;-43
2022/03/16 08:54:26;;;;;;;20.20;11.43;;;8.10;99.90;;;;;;4993204;28;20210;-45
2022/03/16 08:56:53;;;;;;;17.43;10.17;;;8.10;99.90;;;;;;5003024;28;20293;-45
2022/03/16 08:59:23;;;;;;;23.17;10.90;;;8.20;99.90;;;;;;5014472;28;20347;-45
2022/03/16 09:01:51;;;;;;;18.43;11.13;;;8.30;99.90;;;;;;5000115;28;20305;-45
2022/03/16 09:04:18;;;;;;;20.37;11.63;;;8.30;99.90;;;;;;5011507;28;20695;-45
2022/03/16 09:06:45;;;;;;;20.73;11.93;;;8.30;99.90;;;;;;5000636;28;20425;-46
2022/03/16 09:09:12;;;;;;;18.87;11.77;;;8.30;99.90;;;;;;4989529;28;20220;-46
2022/03/16 09:11:39;;;;;;;26.47;11.53;;;8.30;99.90;;;;;;5011030;28;20214;-45
2022/03/16 09:14:06;;;;;;;22.67;12.23;;;8.40;99.90;;;;;;5003712;28;20233;-45
2022/03/16 09:16:35;;;;;;;21.93;12.00;;;8.50;99.90;;;;;;5016925;28;20577;-44
2022/03/16 09:19:02;;;;;;;19.37;12.43;;;8.50;99.90;;;;;;5009493;28;20280;-49
2022/03/16 09:21:28;;;;;;;18.43;11.80;;;8.50;99.90;;;;;;4995306;28;20207;-44
2022/03/16 09:23:56;;;;;;;19.70;12.67;;;8.50;99.90;;;;;;4995390;28;20230;-48
2022/03/16 09:26:23;;;;;;;20.37;11.80;;;8.50;99.90;;;;;;5002049;28;20257;-48
2022/03/16 09:28:51;;;;;;;19.30;11.70;;;8.50;99.90;;;;;;5024232;28;20252;-44
2022/03/16 09:31:20;;;;;;;24.47;13.97;;;8.40;99.90;;;;;;5000886;28;20215;-46
2022/03/16 09:33:48;;;;;;;24.33;12.83;;;8.50;99.90;;;;;;5015092;28;20538;-44
2022/03/16 09:36:15;;;;;;;19.07;11.80;;;8.50;99.90;;;;;;5003872;28;20276;-44
2022/03/16 09:38:42;;;;;;;25.03;13.10;;;8.50;99.90;;;;;;5001121;28;20290;-47
2022/03/16 09:41:10;;;;;;;22.70;12.83;;;8.50;99.90;;;;;;5002555;28;20290;-47
2022/03/16 09:43:37;;;;;;;21.87;12.73;;;8.60;99.90;;;;;;5006536;28;20229;-45
2022/03/16 09:46:11;;;;;;;23.50;13.03;;;8.70;99.90;;;;;;5018755;28;20206;-47
2022/03/16 09:48:39;;;;;;;29.40;13.87;;;8.70;99.90;;;;;;5016816;28;20226;-45
2022/03/16 09:51:09;;;;;;;25.13;13.27;;;8.70;99.90;;;;;;5021175;28;20482;-46
2022/03/16 09:53:36;;;;;;;23.93;13.53;;;8.80;99.90;;;;;;4983310;28;20225;-45
2022/03/16 09:56:03;;;;;;;26.60;14.60;;;8.90;99.90;;;;;;5017024;28;20521;-47
2022/03/16 09:58:30;;;;;;;23.73;13.13;;;9.00;99.90;;;;;;4998550;28;20289;-45
2022/03/16 10:00:57;;;;;;;24.67;13.47;;;9.10;99.90;;;;;;5018565;28;20280;-46
2022/03/16 10:03:28;;;;;;;23.50;14.10;;;9.20;99.90;;;;;;5013383;28;20428;-46
2022/03/16 10:05:57;;;;;;;23.13;12.67;;;9.20;99.90;;;;;;5019831;28;20264;-45
2022/03/16 10:08:30;;;;;;;20.70;12.30;;;9.20;99.90;;;;;;4993988;28;20214;-46
2022/03/16 10:13:53;;;;;;;18.43;12.90;;;9.20;99.90;;;;;;5017576;28;20264;-46
2022/03/16 10:16:21;;;;;;;21.33;12.53;;;9.30;99.90;;;;;;5007154;28;20220;-46
2022/03/16 10:18:55;;;;;;;18.07;11.93;;;9.30;99.90;;;;;;5018411;28;20544;-46
2022/03/16 10:21:23;;;;;;;19.87;11.47;;;9.40;99.90;;;;;;5020080;28;20212;-45
2022/03/16 10:23:51;;;;;;;24.33;10.87;;;9.40;99.90;;;;;;5004865;28;20563;-45
2022/03/16 10:26:21;;;;;;;18.80;11.63;;;9.50;99.90;;;;;;5005388;28;20210;-45
2022/03/16 10:28:48;;;;;;;24.77;12.03;;;9.50;99.90;;;;;;5006229;28;20210;-45
2022/03/16 10:31:18;;;;;;;19.53;11.30;;;9.50;99.90;;;;;;5016217;28;20700;-45
2022/03/16 10:33:47;;;;;;;21.07;12.67;;;9.60;99.90;;;;;;5006642;28;20557;-45
2022/03/16 10:36:15;;;;;;;22.97;12.80;;;9.60;99.90;;;;;;5013196;28;20210;-45
2022/03/16 10:38:44;;;;;;;21.50;12.50;;;9.70;99.90;;;;;;5021982;28;20306;-45
2022/03/16 10:46:50;;;;;;;21.33;11.57;;;9.90;99.90;;;;;;5019164;28;20276;-45
2022/03/16 10:49:20;;;;;;;18.03;11.83;;;9.80;99.90;;;;;;5004499;28;20312;-46
2022/03/16 10:51:47;;;;;;;18.67;11.53;;;9.80;99.90;;;;;;5023366;28;20238;-46
2022/03/16 10:54:15;;;;;;;26.63;12.60;;;9.90;99.90;;;;;;4998251;28;20257;-46
2022/03/16 10:56:45;;;;;;;27.70;13.13;;;9.90;99.90;;;;;;5021289;28;20218;-45
2022/03/16 10:59:13;;;;;;;20.50;11.70;;;10.00;99.90;;;;;;5002688;28;20214;-45
2022/03/16 11:01:41;;;;;;;23.23;13.27;;;10.10;99.90;;;;;;5022715;28;20273;-46
2022/03/16 11:04:09;;;;;;;25.23;12.77;;;10.10;99.90;;;;;;5002811;28;20310;-45
2022/03/16 11:06:37;;;;;;;22.60;12.30;;;10.10;99.90;;;;;;5019339;28;20203;-46
2022/03/16 11:09:06;;;;;;;19.13;11.70;;;10.20;99.90;;;;;;5017663;28;20268;-45
2022/03/16 11:14:21;;;;;;;21.80;12.03;;;10.30;99.90;;;;;;5007374;28;20276;-46
2022/03/16 11:16:48;;;;;;;19.17;11.70;;;10.30;99.90;;;;;;5020083;28;20278;-46
2022/03/16 11:19:18;;;;;;;19.90;11.67;;;10.40;99.90;;;;;;5015849;28;20364;-46
2022/03/16 11:21:50;;;;;;;21.37;10.97;;;10.40;99.90;;;;;;5007173;28;20216;-46
2022/03/16 11:24:27;;;;;;;20.90;11.27;;;10.50;99.90;;;;;;5009589;28;20611;-44
2022/03/16 11:27:32;;;;;;;23.05;12.02;;;10.50;99.90;;;;;;5004087;28;20217;-45
2022/03/16 11:30:09;;;;;;;20.87;11.60;;;10.60;99.90;;;;;;5000949;28;20276;-50
2022/03/16 11:32:38;;;;;;;22.13;11.82;;;10.60;99.90;;;;;;5012692;28;20248;-46
2022/03/16 11:35:09;;;;;;;18.27;11.47;;;10.70;99.90;;;;;;5018948;28;20194;-45
2022/03/16 11:37:38;;;;;;;15.65;10.45;;;10.80;99.90;;;;;;5010764;28;20202;-46
2022/03/16 11:40:11;;;;;;;19.77;11.82;;;10.70;99.90;;;;;;5019763;28;20382;-46
2022/03/16 11:42:40;;;;;;;20.45;11.38;;;10.70;99.90;;;;;;5002387;28;20421;-45
2022/03/16 11:45:35;;;;;;;19.83;11.50;;;10.80;99.90;;;;;;5012045;28;20222;-45
2022/03/16 11:48:36;;;;;;;15.05;9.55;;;10.80;99.90;;;;;;5007220;28;20221;-45
2022/03/16 11:51:26;;;;;;;15.77;9.32;;;10.90;99.90;;;;;;5001634;28;20218;-46
2022/03/16 11:54:10;;;;;;;17.25;9.50;;;10.90;99.90;;;;;;5012626;28;20666;-46
2022/03/16 11:56:46;;;;;;;18.00;9.75;;;10.90;99.90;;;;;;5018796;28;20405;-45
2022/03/16 11:59:32;;;;;;;17.67;9.25;;;10.90;99.90;;;;;;4977722;28;20301;-46
2022/03/16 12:02:25;;;;;;;17.23;9.40;;;11.00;99.90;;;;;;5004440;28;20210;-47
2022/03/16 12:05:00;;;;;;;18.10;10.25;;;11.00;99.90;;;;;;5019849;28;20226;-45
2022/03/16 12:07:30;;;;;;;16.33;9.65;;;11.00;99.90;;;;;;4999320;28;20312;-46
2022/03/16 12:10:03;;;;;;;17.00;9.85;;;11.10;99.90;;;;;;5019431;28;21418;-47
2022/03/16 12:15:27;;;;;;;15.50;9.93;;;11.10;99.90;;;;;;5011268;28;20352;-45
2022/03/16 12:18:23;;;;;;;16.58;9.73;;;11.10;99.90;;;;;;5009558;28;20237;-47
2022/03/16 12:20:56;;;;;;;19.98;10.00;;;11.20;99.90;;;;;;5014217;28;20206;-45
2022/03/16 12:23:58;;;;;;;18.10;9.48;;;11.20;99.90;;;;;;5004534;28;20575;-45
2022/03/16 12:26:27;;;;;;;19.10;10.80;;;11.30;99.90;;;;;;5010364;28;20277;-46
2022/03/16 12:29:05;;;;;;;19.35;10.75;;;11.40;99.90;;;;;;4993211;28;20483;-46
2022/03/16 12:31:34;;;;;;;14.82;9.32;;;11.40;99.90;;;;;;5010334;28;20483;-46
2022/03/16 12:34:03;;;;;;;18.02;10.20;;;11.40;99.90;;;;;;4952051;28;22544;-45
2022/03/16 12:36:32;;;;;;;18.50;10.88;;;11.40;99.90;;;;;;5008437;28;20283;-46
2022/03/16 12:39:01;;;;;;;14.65;9.50;;;11.50;99.90;;;;;;4975955;28;20284;-46
2022/03/16 12:44:16;;;;;;;15.30;9.25;;;11.50;99.90;;;;;;4985674;28;20241;-46
2022/03/16 12:46:53;;;;;;;15.10;9.10;;;11.40;99.90;;;;;;4997460;28;20198;-46
2022/03/16 12:49:23;;;;;;;17.67;9.32;;;11.40;99.90;;;;;;4978533;28;20264;-49
2022/03/16 12:51:52;;;;;;;19.27;9.27;;;11.50;99.90;;;;;;4994413;28;20310;-45
2022/03/16 12:54:27;;;;;;;15.70;9.60;;;11.50;99.90;;;;;;4983947;28;20206;-51
2022/03/16 12:56:58;;;;;;;16.20;8.60;;;11.40;99.90;;;;;;5000244;28;20300;-45
2022/03/16 12:59:27;;;;;;;15.10;8.75;;;11.40;99.90;;;;;;4995855;28;20241;-47
2022/03/16 13:01:57;;;;;;;13.73;8.68;;;11.40;99.90;;;;;;5000580;28;20336;-47